sensor_id;sensor_type;location;lat;lon;timestamp;pressure;altitude;pressure_sealevel;temperature;humidity
5691;BME280;2870;42.680;23.364;2023-03-14T00:01:13;95352.81;;;4.70;50.23
5691;BME280;2870;42.680;23.364;2023-03-14T00:03:40;95361.31;;;4.42;50.83
5691;BME280;2870;42.680;23.364;2023-03-14T00:06:07;95347.31;;;4.64;50.83
5691;BME280;2870;42.680;23.364;2023-03-14T00:08:34;95336.44;;;4.66;50.90
5691;BME280;2870;42.680;23.364;2023-03-14T00:11:06;95340.03;;;4.61;50.88
5691;BME280;2870;42.680;23.364;2023-03-14T00:13:33;95333.56;;;4.42;51.32
5691;BME280;2870;42.680;23.364;2023-03-14T00:16:04;95336.03;;;4.51;51.45
5691;BME280;2870;42.680;23.364;2023-03-14T00:18:33;95331.94;;;4.58;51.30
5691;BME280;2870;42.680;23.364;2023-03-14T00:21:01;95323.03;;;4.29;52.24
5691;BME280;2870;42.680;23.364;2023-03-14T00:23:29;95323.97;;;4.43;51.95
5691;BME280;2870;42.680;23.364;2023-03-14T00:25:59;95311.25;;;4.53;51.69
5691;BME280;2870;42.680;23.364;2023-03-14T00:28:26;95301.75;;;4.43;52.11
5691;BME280;2870;42.680;23.364;2023-03-14T00:30:52;95317.16;;;4.44;51.94
5691;BME280;2870;42.680;23.364;2023-03-14T00:33:19;95306.75;;;4.09;52.48
5691;BME280;2870;42.680;23.364;2023-03-14T00:35:54;95301.16;;;4.14;52.72
5691;BME280;2870;42.680;23.364;2023-03-14T00:38:20;95296.00;;;4.30;52.24
5691;BME280;2870;42.680;23.364;2023-03-14T00:40:47;95293.63;;;4.09;52.69
5691;BME280;2870;42.680;23.364;2023-03-14T00:43:14;95299.63;;;4.13;52.99
5691;BME280;2870;42.680;23.364;2023-03-14T00:45:41;95285.47;;;4.22;52.78
5691;BME280;2870;42.680;23.364;2023-03-14T00:48:08;95295.91;;;4.05;53.34
5691;BME280;2870;42.680;23.364;2023-03-14T00:50:35;95296.34;;;4.20;53.15
5691;BME280;2870;42.680;23.364;2023-03-14T00:53:03;95291.00;;;4.22;53.10
5691;BME280;2870;42.680;23.364;2023-03-14T00:55:30;95284.03;;;4.05;53.18
5691;BME280;2870;42.680;23.364;2023-03-14T00:57:57;95287.56;;;4.05;53.56
5691;BME280;2870;42.680;23.364;2023-03-14T01:00:24;95285.28;;;4.09;53.59
5691;BME280;2870;42.680;23.364;2023-03-14T01:02:50;95272.00;;;3.85;54.31
5691;BME280;2870;42.680;23.364;2023-03-14T01:05:17;95283.34;;;3.93;54.68
5691;BME280;2870;42.680;23.364;2023-03-14T01:07:44;95273.84;;;3.71;54.99
5691;BME280;2870;42.680;23.364;2023-03-14T01:10:13;95278.56;;;3.88;54.75
5691;BME280;2870;42.680;23.364;2023-03-14T01:12:40;95270.81;;;3.75;55.19
5691;BME280;2870;42.680;23.364;2023-03-14T01:15:07;95256.69;;;3.73;55.55
5691;BME280;2870;42.680;23.364;2023-03-14T01:17:34;95267.16;;;3.97;55.13
5691;BME280;2870;42.680;23.364;2023-03-14T01:20:04;95262.59;;;4.05;54.82
5691;BME280;2870;42.680;23.364;2023-03-14T01:22:31;95255.38;;;3.85;54.84
5691;BME280;2870;42.680;23.364;2023-03-14T01:24:58;95249.81;;;3.85;54.93
5691;BME280;2870;42.680;23.364;2023-03-14T01:27:26;95247.00;;;3.91;55.12
5691;BME280;2870;42.680;23.364;2023-03-14T01:29:53;95224.59;;;3.83;54.85
5691;BME280;2870;42.680;23.364;2023-03-14T01:32:19;95250.78;;;3.99;54.61
5691;BME280;2870;42.680;23.364;2023-03-14T01:34:46;95245.94;;;4.05;54.64
5691;BME280;2870;42.680;23.364;2023-03-14T01:37:13;95250.50;;;3.97;54.53
5691;BME280;2870;42.680;23.364;2023-03-14T01:39:40;95241.44;;;3.96;54.56
5691;BME280;2870;42.680;23.364;2023-03-14T01:42:07;95231.88;;;3.97;54.16
5691;BME280;2870;42.680;23.364;2023-03-14T01:44:49;95239.72;;;3.88;54.38
5691;BME280;2870;42.680;23.364;2023-03-14T01:47:16;95234.72;;;3.81;54.89
5691;BME280;2870;42.680;23.364;2023-03-14T01:49:44;95231.16;;;3.86;54.46
5691;BME280;2870;42.680;23.364;2023-03-14T01:52:14;95230.66;;;3.87;54.59
5691;BME280;2870;42.680;23.364;2023-03-14T01:54:44;95229.06;;;4.03;54.10
5691;BME280;2870;42.680;23.364;2023-03-14T01:57:16;95221.81;;;3.89;54.73
5691;BME280;2870;42.680;23.364;2023-03-14T01:59:48;95219.22;;;3.96;55.34
5691;BME280;2870;42.680;23.364;2023-03-14T02:02:18;95220.38;;;3.77;55.91
5691;BME280;2870;42.680;23.364;2023-03-14T02:04:45;95224.09;;;3.85;54.88
5691;BME280;2870;42.680;23.364;2023-03-14T02:07:15;95228.28;;;4.03;56.35
5691;BME280;2870;42.680;23.364;2023-03-14T02:09:44;95230.09;;;3.94;56.35
5691;BME280;2870;42.680;23.364;2023-03-14T02:12:12;95221.13;;;3.77;56.45
5691;BME280;2870;42.680;23.364;2023-03-14T02:14:41;95226.13;;;3.84;55.39
5691;BME280;2870;42.680;23.364;2023-03-14T02:17:15;95220.78;;;3.92;55.42
5691;BME280;2870;42.680;23.364;2023-03-14T02:19:53;95221.44;;;3.62;57.45
5691;BME280;2870;42.680;23.364;2023-03-14T02:22:24;95216.84;;;3.76;56.94
5691;BME280;2870;42.680;23.364;2023-03-14T02:24:59;95215.00;;;3.84;56.70
5691;BME280;2870;42.680;23.364;2023-03-14T02:27:30;95211.28;;;3.76;57.35
5691;BME280;2870;42.680;23.364;2023-03-14T02:29:59;95207.47;;;3.79;57.56
5691;BME280;2870;42.680;23.364;2023-03-14T02:32:28;95215.34;;;4.16;57.24
5691;BME280;2870;42.680;23.364;2023-03-14T02:34:57;95208.03;;;4.13;57.01
5691;BME280;2870;42.680;23.364;2023-03-14T02:37:27;95214.31;;;4.14;56.68
5691;BME280;2870;42.680;23.364;2023-03-14T02:39:56;95216.53;;;4.27;56.61
5691;BME280;2870;42.680;23.364;2023-03-14T02:42:23;95213.50;;;3.83;57.34
5691;BME280;2870;42.680;23.364;2023-03-14T02:44:59;95225.06;;;3.46;59.13
5691;BME280;2870;42.680;23.364;2023-03-14T02:47:29;95231.84;;;3.45;60.66
5691;BME280;2870;42.680;23.364;2023-03-14T02:50:13;95225.34;;;3.31;60.04
5691;BME280;2870;42.680;23.364;2023-03-14T02:52:41;95221.56;;;3.23;60.82
5691;BME280;2870;42.680;23.364;2023-03-14T02:55:08;95225.13;;;3.29;60.53
5691;BME280;2870;42.680;23.364;2023-03-14T02:57:35;95225.59;;;3.28;60.77
5691;BME280;2870;42.680;23.364;2023-03-14T03:00:04;95227.63;;;3.27;60.63
5691;BME280;2870;42.680;23.364;2023-03-14T03:02:32;95228.88;;;3.32;61.61
5691;BME280;2870;42.680;23.364;2023-03-14T03:04:58;95231.44;;;3.18;61.50
5691;BME280;2870;42.680;23.364;2023-03-14T03:07:25;95226.69;;;2.97;62.05
5691;BME280;2870;42.680;23.364;2023-03-14T03:09:52;95219.13;;;2.97;62.61
5691;BME280;2870;42.680;23.364;2023-03-14T03:12:19;95224.19;;;2.93;63.25
5691;BME280;2870;42.680;23.364;2023-03-14T03:14:46;95233.50;;;2.96;63.20
5691;BME280;2870;42.680;23.364;2023-03-14T03:17:15;95229.22;;;2.89;63.90
5691;BME280;2870;42.680;23.364;2023-03-14T03:19:42;95219.38;;;2.99;62.41
5691;BME280;2870;42.680;23.364;2023-03-14T03:22:09;95219.91;;;2.86;63.60
5691;BME280;2870;42.680;23.364;2023-03-14T03:24:36;95222.69;;;2.81;63.85
5691;BME280;2870;42.680;23.364;2023-03-14T03:27:03;95222.19;;;2.77;65.04
5691;BME280;2870;42.680;23.364;2023-03-14T03:29:29;95222.47;;;2.73;63.53
5691;BME280;2870;42.680;23.364;2023-03-14T03:31:56;95227.25;;;2.78;64.14
5691;BME280;2870;42.680;23.364;2023-03-14T03:34:24;95225.22;;;2.73;64.30
5691;BME280;2870;42.680;23.364;2023-03-14T03:36:51;95212.16;;;2.68;64.51
5691;BME280;2870;42.680;23.364;2023-03-14T03:39:18;95213.91;;;2.65;65.29
5691;BME280;2870;42.680;23.364;2023-03-14T03:41:45;95212.38;;;2.64;65.84
5691;BME280;2870;42.680;23.364;2023-03-14T03:44:11;95205.34;;;2.63;65.93
5691;BME280;2870;42.680;23.364;2023-03-14T03:46:39;95218.16;;;2.66;65.54
5691;BME280;2870;42.680;23.364;2023-03-14T03:49:05;95220.97;;;2.61;66.00
5691;BME280;2870;42.680;23.364;2023-03-14T03:51:34;95219.44;;;2.60;66.01
5691;BME280;2870;42.680;23.364;2023-03-14T03:54:01;95225.72;;;2.66;65.65
5691;BME280;2870;42.680;23.364;2023-03-14T03:56:27;95222.97;;;2.60;66.50
5691;BME280;2870;42.680;23.364;2023-03-14T03:58:54;95232.00;;;2.66;66.65
5691;BME280;2870;42.680;23.364;2023-03-14T04:01:21;95227.75;;;2.54;66.66
5691;BME280;2870;42.680;23.364;2023-03-14T04:03:48;95234.81;;;2.44;66.38
5691;BME280;2870;42.680;23.364;2023-03-14T04:06:15;95231.03;;;2.53;67.02
5691;BME280;2870;42.680;23.364;2023-03-14T04:08:43;95209.13;;;2.38;66.41
5691;BME280;2870;42.680;23.364;2023-03-14T04:11:10;95224.75;;;2.47;67.13
5691;BME280;2870;42.680;23.364;2023-03-14T04:13:37;95224.50;;;2.50;67.74
5691;BME280;2870;42.680;23.364;2023-03-14T04:16:11;95226.75;;;2.52;67.82
5691;BME280;2870;42.680;23.364;2023-03-14T04:18:40;95217.19;;;2.42;68.49
5691;BME280;2870;42.680;23.364;2023-03-14T04:21:07;95214.19;;;2.51;68.48
5691;BME280;2870;42.680;23.364;2023-03-14T04:23:34;95213.66;;;2.52;68.12
5691;BME280;2870;42.680;23.364;2023-03-14T04:26:03;95200.34;;;2.45;68.58
5691;BME280;2870;42.680;23.364;2023-03-14T04:28:30;95196.81;;;2.39;68.09
5691;BME280;2870;42.680;23.364;2023-03-14T04:30:57;95195.28;;;2.38;68.66
5691;BME280;2870;42.680;23.364;2023-03-14T04:33:24;95194.81;;;2.34;68.21
5691;BME280;2870;42.680;23.364;2023-03-14T04:35:53;95199.31;;;2.37;69.91
5691;BME280;2870;42.680;23.364;2023-03-14T04:38:20;95197.56;;;2.34;69.75
5691;BME280;2870;42.680;23.364;2023-03-14T04:40:47;95188.50;;;2.28;69.59
5691;BME280;2870;42.680;23.364;2023-03-14T04:43:16;95185.47;;;2.26;69.87
5691;BME280;2870;42.680;23.364;2023-03-14T04:45:42;95182.47;;;2.24;70.12
5691;BME280;2870;42.680;23.364;2023-03-14T04:48:10;95186.72;;;2.19;70.56
5691;BME280;2870;42.680;23.364;2023-03-14T04:50:37;95182.97;;;2.17;70.72
5691;BME280;2870;42.680;23.364;2023-03-14T04:53:04;95183.72;;;2.17;70.40
5691;BME280;2870;42.680;23.364;2023-03-14T04:55:32;95175.94;;;2.16;70.95
5691;BME280;2870;42.680;23.364;2023-03-14T04:57:59;95178.44;;;2.13;70.76
5691;BME280;2870;42.680;23.364;2023-03-14T05:00:28;95176.69;;;2.22;70.91
5691;BME280;2870;42.680;23.364;2023-03-14T05:02:55;95177.16;;;2.26;70.89
5691;BME280;2870;42.680;23.364;2023-03-14T05:05:22;95173.41;;;2.34;71.02
5691;BME280;2870;42.680;23.364;2023-03-14T05:07:49;95181.94;;;2.31;72.34
5691;BME280;2870;42.680;23.364;2023-03-14T05:10:16;95172.13;;;2.35;71.33
5691;BME280;2870;42.680;23.364;2023-03-14T05:12:42;95181.94;;;2.42;71.12
5691;BME280;2870;42.680;23.364;2023-03-14T05:15:10;95170.13;;;2.42;71.03
5691;BME280;2870;42.680;23.364;2023-03-14T05:17:38;95171.91;;;2.33;71.08
5691;BME280;2870;42.680;23.364;2023-03-14T05:20:05;95177.16;;;2.31;70.76
5691;BME280;2870;42.680;23.364;2023-03-14T05:22:35;95174.63;;;2.67;70.20
5691;BME280;2870;42.680;23.364;2023-03-14T05:25:02;95179.03;;;3.15;68.74
5691;BME280;2870;42.680;23.364;2023-03-14T05:27:28;95184.53;;;3.26;68.48
5691;BME280;2870;42.680;23.364;2023-03-14T05:29:55;95173.47;;;3.21;67.94
5691;BME280;2870;42.680;23.364;2023-03-14T05:32:22;95171.00;;;3.00;68.65
5691;BME280;2870;42.680;23.364;2023-03-14T05:34:50;95171.78;;;3.01;69.18
5691;BME280;2870;42.680;23.364;2023-03-14T05:37:17;95177.25;;;3.17;67.71
5691;BME280;2870;42.680;23.364;2023-03-14T05:39:43;95173.41;;;3.37;68.30
5691;BME280;2870;42.680;23.364;2023-03-14T05:42:10;95176.91;;;3.43;67.32
5691;BME280;2870;42.680;23.364;2023-03-14T05:44:37;95179.44;;;3.41;66.84
5691;BME280;2870;42.680;23.364;2023-03-14T05:47:04;95182.13;;;3.58;66.49
5691;BME280;2870;42.680;23.364;2023-03-14T05:49:31;95175.84;;;3.52;66.38
5691;BME280;2870;42.680;23.364;2023-03-14T05:51:59;95176.59;;;3.53;66.86
5691;BME280;2870;42.680;23.364;2023-03-14T05:54:25;95175.84;;;3.58;67.62
5691;BME280;2870;42.680;23.364;2023-03-14T05:56:52;95179.81;;;3.62;66.18
5691;BME280;2870;42.680;23.364;2023-03-14T05:59:19;95181.72;;;3.37;66.99
5691;BME280;2870;42.680;23.364;2023-03-14T06:01:46;95176.25;;;3.21;66.80
5691;BME280;2870;42.680;23.364;2023-03-14T06:04:12;95169.59;;;3.46;67.04
5691;BME280;2870;42.680;23.364;2023-03-14T06:06:39;95181.78;;;3.73;65.31
5691;BME280;2870;42.680;23.364;2023-03-14T06:09:07;95176.47;;;3.81;65.59
5691;BME280;2870;42.680;23.364;2023-03-14T06:11:34;95177.03;;;4.09;64.85
5691;BME280;2870;42.680;23.364;2023-03-14T06:14:01;95172.19;;;4.15;64.87
5691;BME280;2870;42.680;23.364;2023-03-14T06:16:28;95169.97;;;4.38;63.72
5691;BME280;2870;42.680;23.364;2023-03-14T06:18:55;95165.56;;;4.54;63.08
5691;BME280;2870;42.680;23.364;2023-03-14T06:21:22;95177.81;;;4.64;62.74
5691;BME280;2870;42.680;23.364;2023-03-14T06:23:48;95175.56;;;4.63;61.77
5691;BME280;2870;42.680;23.364;2023-03-14T06:26:17;95181.13;;;4.63;62.20
5691;BME280;2870;42.680;23.364;2023-03-14T06:28:43;95153.81;;;4.37;62.38
5691;BME280;2870;42.680;23.364;2023-03-14T06:31:10;95174.44;;;4.77;61.41
5691;BME280;2870;42.680;23.364;2023-03-14T06:33:37;95184.84;;;4.71;61.11
5691;BME280;2870;42.680;23.364;2023-03-14T06:36:04;95178.66;;;4.53;61.31
5691;BME280;2870;42.680;23.364;2023-03-14T06:38:31;95180.56;;;4.40;61.51
5691;BME280;2870;42.680;23.364;2023-03-14T06:41:03;95171.28;;;4.86;61.21
5691;BME280;2870;42.680;23.364;2023-03-14T06:43:31;95163.38;;;4.96;60.03
5691;BME280;2870;42.680;23.364;2023-03-14T06:45:58;95166.72;;;5.13;60.56
5691;BME280;2870;42.680;23.364;2023-03-14T06:48:25;95166.72;;;5.13;59.18
5691;BME280;2870;42.680;23.364;2023-03-14T06:50:51;95160.69;;;5.09;58.19
5691;BME280;2870;42.680;23.364;2023-03-14T06:53:18;95156.69;;;5.29;57.90
5691;BME280;2870;42.680;23.364;2023-03-14T06:55:45;95155.06;;;5.58;56.67
5691;BME280;2870;42.680;23.364;2023-03-14T06:58:12;95154.00;;;5.99;55.34
5691;BME280;2870;42.680;23.364;2023-03-14T07:00:40;95148.75;;;6.27;55.67
5691;BME280;2870;42.680;23.364;2023-03-14T07:03:08;95156.41;;;6.99;51.86
5691;BME280;2870;42.680;23.364;2023-03-14T07:05:36;95146.41;;;7.56;50.56
5691;BME280;2870;42.680;23.364;2023-03-14T07:08:04;95151.53;;;8.00;48.60
5691;BME280;2870;42.680;23.364;2023-03-14T07:10:31;95145.53;;;8.50;47.99
5691;BME280;2870;42.680;23.364;2023-03-14T07:12:58;95144.31;;;8.80;45.67
5691;BME280;2870;42.680;23.364;2023-03-14T07:15:24;95141.41;;;8.10;46.26
5691;BME280;2870;42.680;23.364;2023-03-14T07:17:53;95135.28;;;8.95;46.33
5691;BME280;2870;42.680;23.364;2023-03-14T07:20:19;95136.97;;;9.63;44.24
5691;BME280;2870;42.680;23.364;2023-03-14T07:22:47;95140.09;;;9.95;43.18
5691;BME280;2870;42.680;23.364;2023-03-14T07:25:14;95143.13;;;9.61;45.69
5691;BME280;2870;42.680;23.364;2023-03-14T07:27:42;95128.63;;;9.34;42.98
5691;BME280;2870;42.680;23.364;2023-03-14T07:30:10;95141.56;;;9.89;42.98
5691;BME280;2870;42.680;23.364;2023-03-14T07:32:37;95140.59;;;10.60;41.31
5691;BME280;2870;42.680;23.364;2023-03-14T07:35:07;95136.50;;;11.07;40.29
5691;BME280;2870;42.680;23.364;2023-03-14T07:37:35;95131.91;;;10.20;41.63
5691;BME280;2870;42.680;23.364;2023-03-14T07:40:02;95136.50;;;10.46;42.62
5691;BME280;2870;42.680;23.364;2023-03-14T07:42:32;95111.94;;;11.31;39.89
5691;BME280;2870;42.680;23.364;2023-03-14T07:44:59;95124.75;;;11.64;39.65
5691;BME280;2870;42.680;23.364;2023-03-14T07:47:25;95123.69;;;11.52;39.94
5691;BME280;2870;42.680;23.364;2023-03-14T07:49:52;95118.53;;;11.81;39.13
5691;BME280;2870;42.680;23.364;2023-03-14T07:52:20;95119.44;;;11.91;38.92
5691;BME280;2870;42.680;23.364;2023-03-14T07:54:47;95116.66;;;12.49;38.14
5691;BME280;2870;42.680;23.364;2023-03-14T07:57:14;95125.09;;;13.41;36.14
5691;BME280;2870;42.680;23.364;2023-03-14T07:59:42;95114.88;;;12.61;37.13
5691;BME280;2870;42.680;23.364;2023-03-14T08:02:10;95113.44;;;11.80;37.61
5691;BME280;2870;42.680;23.364;2023-03-14T08:04:38;95099.69;;;12.82;37.15
5691;BME280;2870;42.680;23.364;2023-03-14T08:07:05;95117.22;;;13.22;37.02
5691;BME280;2870;42.680;23.364;2023-03-14T08:09:33;95109.94;;;14.43;35.30
5691;BME280;2870;42.680;23.364;2023-03-14T08:12:00;95114.72;;;13.96;34.96
5691;BME280;2870;42.680;23.364;2023-03-14T08:14:27;95115.91;;;13.58;34.58
5691;BME280;2870;42.680;23.364;2023-03-14T08:16:56;95107.19;;;13.04;35.88
5691;BME280;2870;42.680;23.364;2023-03-14T08:19:23;95102.28;;;11.64;36.87
5691;BME280;2870;42.680;23.364;2023-03-14T08:21:49;95107.41;;;12.31;38.20
5691;BME280;2870;42.680;23.364;2023-03-14T08:24:17;95117.47;;;13.69;36.19
5691;BME280;2870;42.680;23.364;2023-03-14T08:26:45;95112.50;;;14.75;34.58
5691;BME280;2870;42.680;23.364;2023-03-14T08:29:12;95109.28;;;14.62;33.67
5691;BME280;2870;42.680;23.364;2023-03-14T08:31:39;95102.16;;;14.33;34.59
5691;BME280;2870;42.680;23.364;2023-03-14T08:34:06;95099.56;;;12.97;34.85
5691;BME280;2870;42.680;23.364;2023-03-14T08:36:33;95098.09;;;12.96;35.70
5691;BME280;2870;42.680;23.364;2023-03-14T08:39:00;95088.75;;;13.97;35.64
5691;BME280;2870;42.680;23.364;2023-03-14T08:41:29;95091.69;;;13.38;34.41
5691;BME280;2870;42.680;23.364;2023-03-14T08:43:57;95083.50;;;12.90;35.02
5691;BME280;2870;42.680;23.364;2023-03-14T08:46:23;95075.59;;;13.65;36.84
5691;BME280;2870;42.680;23.364;2023-03-14T08:48:50;95078.06;;;14.96;34.40
5691;BME280;2870;42.680;23.364;2023-03-14T08:51:17;95071.75;;;14.78;33.61
5691;BME280;2870;42.680;23.364;2023-03-14T08:53:44;95060.06;;;14.18;33.31
5691;BME280;2870;42.680;23.364;2023-03-14T08:56:11;95069.09;;;14.80;32.05
5691;BME280;2870;42.680;23.364;2023-03-14T08:58:38;95056.00;;;13.85;34.73
5691;BME280;2870;42.680;23.364;2023-03-14T09:01:09;95055.53;;;14.32;33.68
5691;BME280;2870;42.680;23.364;2023-03-14T09:03:36;95047.19;;;14.35;34.19
5691;BME280;2870;42.680;23.364;2023-03-14T09:06:04;95052.09;;;14.61;33.59
5691;BME280;2870;42.680;23.364;2023-03-14T09:08:32;95043.78;;;15.38;31.64
5691;BME280;2870;42.680;23.364;2023-03-14T09:10:59;95044.91;;;16.13;31.64
5691;BME280;2870;42.680;23.364;2023-03-14T09:13:26;95039.78;;;16.31;30.93
5691;BME280;2870;42.680;23.364;2023-03-14T09:15:53;95038.84;;;15.87;31.30
5691;BME280;2870;42.680;23.364;2023-03-14T09:18:22;95026.91;;;15.99;29.68
5691;BME280;2870;42.680;23.364;2023-03-14T09:20:49;95029.03;;;16.70;30.15
5691;BME280;2870;42.680;23.364;2023-03-14T09:23:16;95011.94;;;15.57;31.09
5691;BME280;2870;42.680;23.364;2023-03-14T09:25:43;95010.56;;;15.87;30.85
5691;BME280;2870;42.680;23.364;2023-03-14T09:28:09;95010.91;;;15.72;30.14
5691;BME280;2870;42.680;23.364;2023-03-14T09:30:37;95006.63;;;16.12;28.19
5691;BME280;2870;42.680;23.364;2023-03-14T09:33:04;95006.34;;;16.08;28.24
5691;BME280;2870;42.680;23.364;2023-03-14T09:35:33;94993.22;;;16.12;30.17
5691;BME280;2870;42.680;23.364;2023-03-14T09:38:00;94994.38;;;16.29;29.49
5691;BME280;2870;42.680;23.364;2023-03-14T09:40:31;94984.38;;;15.58;29.85
5691;BME280;2870;42.680;23.364;2023-03-14T09:43:00;94976.97;;;15.14;31.00
5691;BME280;2870;42.680;23.364;2023-03-14T09:45:28;94968.63;;;14.77;31.25
5691;BME280;2870;42.680;23.364;2023-03-14T09:47:57;94964.44;;;15.85;30.57
5691;BME280;2870;42.680;23.364;2023-03-14T09:50:33;94962.75;;;16.32;30.22
5691;BME280;2870;42.680;23.364;2023-03-14T09:53:09;94954.94;;;15.61;32.93
5691;BME280;2870;42.680;23.364;2023-03-14T09:55:38;94952.84;;;17.17;30.27
5691;BME280;2870;42.680;23.364;2023-03-14T09:58:10;94945.19;;;16.86;30.37
5691;BME280;2870;42.680;23.364;2023-03-14T10:00:38;94945.13;;;16.43;31.11
5691;BME280;2870;42.680;23.364;2023-03-14T10:03:26;94943.84;;;16.35;31.82
5691;BME280;2870;42.680;23.364;2023-03-14T10:05:55;94930.69;;;16.92;30.23
5691;BME280;2870;42.680;23.364;2023-03-14T10:08:24;94932.06;;;17.57;29.78
5691;BME280;2870;42.680;23.364;2023-03-14T10:10:51;94926.81;;;17.30;30.42
5691;BME280;2870;42.680;23.364;2023-03-14T10:13:20;94916.84;;;16.12;32.67
5691;BME280;2870;42.680;23.364;2023-03-14T10:15:52;94917.56;;;16.13;33.36
5691;BME280;2870;42.680;23.364;2023-03-14T10:18:20;94913.09;;;16.10;33.13
5691;BME280;2870;42.680;23.364;2023-03-14T10:20:50;94907.00;;;16.87;29.94
5691;BME280;2870;42.680;23.364;2023-03-14T10:23:32;94901.41;;;17.32;30.93
5691;BME280;2870;42.680;23.364;2023-03-14T10:26:05;94887.75;;;17.97;30.18
5691;BME280;2870;42.680;23.364;2023-03-14T10:28:34;94876.53;;;17.87;29.62
5691;BME280;2870;42.680;23.364;2023-03-14T10:31:04;94879.03;;;16.82;32.30
5691;BME280;2870;42.680;23.364;2023-03-14T10:33:32;94866.72;;;17.67;29.66
5691;BME280;2870;42.680;23.364;2023-03-14T10:36:01;94865.25;;;17.66;30.68
5691;BME280;2870;42.680;23.364;2023-03-14T10:38:31;94858.16;;;17.88;29.87
5691;BME280;2870;42.680;23.364;2023-03-14T10:40:58;94850.41;;;17.44;30.95
5691;BME280;2870;42.680;23.364;2023-03-14T10:43:27;94837.00;;;16.35;32.98
5691;BME280;2870;42.680;23.364;2023-03-14T10:45:58;94836.47;;;16.70;32.97
5691;BME280;2870;42.680;23.364;2023-03-14T10:48:31;94820.91;;;16.59;33.40
5691;BME280;2870;42.680;23.364;2023-03-14T10:51:04;94819.28;;;16.35;32.27
5691;BME280;2870;42.680;23.364;2023-03-14T10:53:43;94817.66;;;16.53;32.04
5691;BME280;2870;42.680;23.364;2023-03-14T10:56:14;94796.41;;;15.78;34.46
5691;BME280;2870;42.680;23.364;2023-03-14T10:58:43;94800.75;;;16.22;33.65
5691;BME280;2870;42.680;23.364;2023-03-14T11:01:29;94786.75;;;16.24;33.22
5691;BME280;2870;42.680;23.364;2023-03-14T11:04:03;94783.34;;;16.59;31.78
5691;BME280;2870;42.680;23.364;2023-03-14T11:06:43;94777.91;;;16.30;32.20
5691;BME280;2870;42.680;23.364;2023-03-14T11:09:18;94772.59;;;16.79;32.78
5691;BME280;2870;42.680;23.364;2023-03-14T11:11:48;94770.03;;;16.28;32.71
5691;BME280;2870;42.680;23.364;2023-03-14T11:14:20;94759.91;;;16.25;32.52
5691;BME280;2870;42.680;23.364;2023-03-14T11:16:57;94752.31;;;16.61;31.63
5691;BME280;2870;42.680;23.364;2023-03-14T11:19:39;94744.69;;;16.30;33.08
5691;BME280;2870;42.680;23.364;2023-03-14T11:22:19;94727.91;;;16.77;32.68
5691;BME280;2870;42.680;23.364;2023-03-14T11:24:59;94725.00;;;16.99;31.99
5691;BME280;2870;42.680;23.364;2023-03-14T11:27:38;94722.19;;;17.10;30.80
5691;BME280;2870;42.680;23.364;2023-03-14T11:30:19;94709.06;;;16.49;31.64
5691;BME280;2870;42.680;23.364;2023-03-14T11:32:53;94705.66;;;15.96;33.44
5691;BME280;2870;42.680;23.364;2023-03-14T11:35:25;94701.19;;;16.47;31.57
5691;BME280;2870;42.680;23.364;2023-03-14T11:37:54;94699.03;;;17.02;31.26
5691;BME280;2870;42.680;23.364;2023-03-14T11:40:26;94694.22;;;17.16;30.74
5691;BME280;2870;42.680;23.364;2023-03-14T11:42:59;94686.34;;;17.15;31.56
5691;BME280;2870;42.680;23.364;2023-03-14T11:45:32;94670.47;;;16.65;31.72
5691;BME280;2870;42.680;23.364;2023-03-14T11:48:15;94678.66;;;16.94;32.83
5691;BME280;2870;42.680;23.364;2023-03-14T11:50:46;94666.59;;;17.05;31.00
5691;BME280;2870;42.680;23.364;2023-03-14T11:53:18;94660.09;;;17.14;30.71
5691;BME280;2870;42.680;23.364;2023-03-14T11:55:49;94657.47;;;17.18;30.45
5691;BME280;2870;42.680;23.364;2023-03-14T11:58:20;94656.63;;;17.39;30.75
5691;BME280;2870;42.680;23.364;2023-03-14T12:00:49;94650.59;;;16.98;30.72
5691;BME280;2870;42.680;23.364;2023-03-14T12:03:23;94645.66;;;17.10;30.59
5691;BME280;2870;42.680;23.364;2023-03-14T12:06:02;94635.69;;;17.21;30.18
5691;BME280;2870;42.680;23.364;2023-03-14T12:08:49;94630.59;;;17.55;29.66
5691;BME280;2870;42.680;23.364;2023-03-14T12:11:24;94620.88;;;17.34;29.52
5691;BME280;2870;42.680;23.364;2023-03-14T12:13:53;94617.69;;;17.28;29.76
5691;BME280;2870;42.680;23.364;2023-03-14T12:16:36;94610.66;;;17.29;29.64
5691;BME280;2870;42.680;23.364;2023-03-14T12:19:28;94605.91;;;17.57;28.90
5691;BME280;2870;42.680;23.364;2023-03-14T12:24:46;94597.13;;;16.92;30.23
5691;BME280;2870;42.680;23.364;2023-03-14T12:27:40;94589.00;;;16.99;29.67
5691;BME280;2870;42.680;23.364;2023-03-14T12:30:17;94581.97;;;17.00;29.64
5691;BME280;2870;42.680;23.364;2023-03-14T12:33:19;94580.38;;;17.08;29.65
5691;BME280;2870;42.680;23.364;2023-03-14T12:35:49;94574.72;;;17.08;29.80
5691;BME280;2870;42.680;23.364;2023-03-14T12:38:22;94572.50;;;16.95;29.39
5691;BME280;2870;42.680;23.364;2023-03-14T12:40:58;94567.16;;;17.36;29.26
5691;BME280;2870;42.680;23.364;2023-03-14T12:43:31;94570.16;;;17.03;29.81
5691;BME280;2870;42.680;23.364;2023-03-14T12:46:15;94555.50;;;16.95;29.90
5691;BME280;2870;42.680;23.364;2023-03-14T12:48:46;94551.81;;;16.92;29.13
5691;BME280;2870;42.680;23.364;2023-03-14T12:51:15;94556.09;;;16.58;29.73
5691;BME280;2870;42.680;23.364;2023-03-14T12:54:07;94555.28;;;16.79;29.44
5691;BME280;2870;42.680;23.364;2023-03-14T12:56:59;94541.31;;;16.95;29.33
5691;BME280;2870;42.680;23.364;2023-03-14T12:59:33;94529.63;;;17.01;29.57
5691;BME280;2870;42.680;23.364;2023-03-14T13:02:13;94534.00;;;17.27;29.44
5691;BME280;2870;42.680;23.364;2023-03-14T13:04:46;94522.81;;;17.17;29.11
5691;BME280;2870;42.680;23.364;2023-03-14T13:07:33;94517.59;;;17.37;30.09
5691;BME280;2870;42.680;23.364;2023-03-14T13:10:15;94516.00;;;17.34;28.80
5691;BME280;2870;42.680;23.364;2023-03-14T13:12:48;94508.16;;;17.21;28.55
5691;BME280;2870;42.680;23.364;2023-03-14T13:15:23;94506.97;;;17.49;28.89
5691;BME280;2870;42.680;23.364;2023-03-14T13:17:52;94508.13;;;17.33;28.93
5691;BME280;2870;42.680;23.364;2023-03-14T13:20:27;94503.91;;;17.34;28.43
5691;BME280;2870;42.680;23.364;2023-03-14T13:22:55;94492.09;;;17.37;28.15
5691;BME280;2870;42.680;23.364;2023-03-14T13:25:22;94500.00;;;17.27;28.12
5691;BME280;2870;42.680;23.364;2023-03-14T13:27:49;94492.69;;;16.99;28.20
5691;BME280;2870;42.680;23.364;2023-03-14T13:30:23;94477.41;;;17.04;28.37
5691;BME280;2870;42.680;23.364;2023-03-14T13:32:52;94467.19;;;16.99;28.26